Time;durP1;ratioP1;P1;durP2;ratioP2;P2;SDS_P1;SDS_P2;PMS_P1;PMS_P2;Temp;Humidity;BMP_temperature;BMP_pressure;BME280_temperature;BME280_humidity;BME280_pressure;Samples;Min_cycle;Max_cycle;Signal;HPM_P1;HPM_P2
2022/09/28 00:01:06;;;;;;;7.85;2.00;;;;;;;;;;4972746;28;20051;-67
2022/09/28 00:03:33;;;;;;;6.22;1.77;;;;;;;;;;4972638;28;20050;-67
2022/09/28 00:06:00;;;;;;;7.47;2.20;;;;;;;;;;4972933;28;20043;-66
2022/09/28 00:08:26;;;;;;;7.00;1.85;;;;;;;;;;4971644;28;20042;-66
2022/09/28 00:10:56;;;;;;;7.15;1.55;;;;;;;;;;4972947;28;20443;-66
2022/09/28 00:13:23;;;;;;;7.28;1.65;;;;;;;;;;4972987;28;20410;-67
2022/09/28 00:16:02;;;;;;;5.95;1.92;;;;;;;;;;4972879;28;20384;-66
2022/09/28 00:18:28;;;;;;;7.95;1.58;;;;;;;;;;4972979;28;20133;-66
2022/09/28 00:20:58;;;;;;;5.07;1.60;;;;;;;;;;4972418;28;20058;-67
2022/09/28 00:23:25;;;;;;;7.35;1.60;;;;;;;;;;4972741;28;20051;-66
2022/09/28 00:25:51;;;;;;;10.30;1.65;;;;;;;;;;4972468;28;20392;-66
2022/09/28 00:28:18;;;;;;;8.57;1.80;;;;;;;;;;4972800;28;20043;-66
2022/09/28 00:30:44;;;;;;;8.85;2.08;;;;;;;;;;4972735;28;20435;-66
2022/09/28 00:33:10;;;;;;;5.85;1.90;;;;;;;;;;4972431;28;20058;-66
2022/09/28 00:35:37;;;;;;;5.30;1.52;;;;;;;;;;4976072;28;20059;-67
2022/09/28 00:38:03;;;;;;;6.28;1.70;;;;;;;;;;4976205;28;20070;-66
2022/09/28 00:40:29;;;;;;;8.35;1.73;;;;;;;;;;4976103;28;20054;-66
2022/09/28 00:42:56;;;;;;;6.20;2.17;;;;;;;;;;4975899;28;20054;-66
2022/09/28 00:45:24;;;;;;;5.05;1.30;;;;;;;;;;4975994;28;20047;-67
2022/09/28 00:47:56;;;;;;;3.80;1.30;;;;;;;;;;4976289;28;20069;-67
2022/09/28 00:50:25;;;;;;;4.90;1.42;;;;;;;;;;4974767;28;20050;-67
2022/09/28 00:53:13;;;;;;;6.10;1.67;;;;;;;;;;4976088;28;20051;-66
2022/09/28 00:56:02;;;;;;;5.25;1.35;;;;;;;;;;4975733;28;20527;-66
2022/09/28 00:58:30;;;;;;;6.30;1.50;;;;;;;;;;4975695;28;20525;-66
2022/09/28 01:00:58;;;;;;;8.57;1.65;;;;;;;;;;4975713;28;20046;-67
2022/09/28 01:03:25;;;;;;;8.48;1.85;;;;;;;;;;4975948;28;20058;-67
2022/09/28 01:05:52;;;;;;;5.43;1.70;;;;;;;;;;4975872;28;20053;-66
2022/09/28 01:08:20;;;;;;;7.40;1.40;;;;;;;;;;4975603;28;20499;-67
2022/09/28 01:10:47;;;;;;;6.43;1.85;;;;;;;;;;4975389;28;20678;-67
2022/09/28 01:13:14;;;;;;;6.15;2.10;;;;;;;;;;4975993;28;20177;-67
2022/09/28 01:16:06;;;;;;;5.25;1.23;;;;;;;;;;4975478;28;20084;-67
2022/09/28 01:18:41;;;;;;;9.27;1.60;;;;;;;;;;4957677;28;20476;-67
2022/09/28 01:21:07;;;;;;;10.30;1.95;;;;;;;;;;4975621;28;20057;-67
2022/09/28 01:23:52;;;;;;;6.07;1.77;;;;;;;;;;4975616;28;20066;-67
2022/09/28 01:26:28;;;;;;;5.15;1.58;;;;;;;;;;4975356;28;20043;-67
2022/09/28 01:29:10;;;;;;;5.32;1.80;;;;;;;;;;4975272;28;20066;-67
2022/09/28 01:31:40;;;;;;;10.52;1.60;;;;;;;;;;4975251;28;20046;-67
2022/09/28 01:34:13;;;;;;;9.13;1.90;;;;;;;;;;4975148;28;20105;-67
2022/09/28 01:36:46;;;;;;;7.40;2.55;;;;;;;;;;4975173;28;20529;-67
2022/09/28 01:39:18;;;;;;;9.77;3.33;;;;;;;;;;4975066;28;20050;-67
2022/09/28 01:41:46;;;;;;;10.40;3.13;;;;;;;;;;4973764;28;20058;-66
2022/09/28 01:44:15;;;;;;;7.43;3.00;;;;;;;;;;4974801;28;20053;-66
2022/09/28 01:46:44;;;;;;;7.90;2.47;;;;;;;;;;4972751;28;20399;-66
2022/09/28 01:49:16;;;;;;;7.78;1.92;;;;;;;;;;4975091;28;20057;-66
2022/09/28 01:51:57;;;;;;;7.20;1.88;;;;;;;;;;4975005;28;20062;-66
2022/09/28 01:54:37;;;;;;;7.90;1.65;;;;;;;;;;4974808;28;20050;-67
2022/09/28 01:57:03;;;;;;;6.38;2.08;;;;;;;;;;4974861;28;20083;-67
2022/09/28 01:59:32;;;;;;;7.03;2.70;;;;;;;;;;4974855;28;20057;-67
2022/09/28 02:02:02;;;;;;;8.25;2.47;;;;;;;;;;4974817;28;20042;-67
2022/09/28 02:04:31;;;;;;;6.32;1.98;;;;;;;;;;4974885;28;20068;-67
2022/09/28 02:07:01;;;;;;;8.10;2.22;;;;;;;;;;4974478;28;20487;-67
2022/09/28 02:09:30;;;;;;;6.68;2.20;;;;;;;;;;4974489;28;20058;-67
2022/09/28 02:12:01;;;;;;;7.10;1.88;;;;;;;;;;4974966;28;20138;-66
2022/09/28 02:14:28;;;;;;;6.07;1.77;;;;;;;;;;4974706;28;20043;-66
2022/09/28 02:16:56;;;;;;;5.93;1.47;;;;;;;;;;4974266;28;20062;-67
2022/09/28 02:19:24;;;;;;;7.40;1.60;;;;;;;;;;4974334;28;20051;-67
2022/09/28 02:22:22;;;;;;;4.47;1.10;;;;;;;;;;4974196;28;20061;-66
2022/09/28 02:24:52;;;;;;;4.75;1.35;;;;;;;;;;4960174;28;20164;-67
2022/09/28 02:27:32;;;;;;;5.53;1.40;;;;;;;;;;4974171;28;20074;-67
2022/09/28 02:29:59;;;;;;;6.72;1.20;;;;;;;;;;4974121;28;20058;-67
2022/09/28 02:32:27;;;;;;;7.25;1.73;;;;;;;;;;4973981;28;20063;-66
2022/09/28 02:34:54;;;;;;;7.28;2.35;;;;;;;;;;4974231;28;20063;-67
2022/09/28 02:37:20;;;;;;;10.15;2.78;;;;;;;;;;4974013;28;20057;-67
2022/09/28 02:39:47;;;;;;;6.82;2.63;;;;;;;;;;4973841;28;20055;-67
2022/09/28 02:42:28;;;;;;;4.88;1.80;;;;;;;;;;4973778;28;20057;-67
2022/09/28 02:45:20;;;;;;;7.40;2.05;;;;;;;;;;4973954;28;20069;-67
2022/09/28 02:47:50;;;;;;;9.38;1.90;;;;;;;;;;4971911;28;20088;-67
2022/09/28 02:50:34;;;;;;;3.80;1.20;;;;;;;;;;4973681;28;20072;-67
2022/09/28 02:53:04;;;;;;;8.40;1.90;;;;;;;;;;4973667;28;20051;-67
2022/09/28 02:55:30;;;;;;;5.88;1.50;;;;;;;;;;4973839;28;20046;-67
2022/09/28 02:58:00;;;;;;;5.63;1.50;;;;;;;;;;4973252;28;20054;-67
2022/09/28 03:00:26;;;;;;;13.13;1.60;;;;;;;;;;4973437;28;20050;-66
2022/09/28 03:03:03;;;;;;;3.55;1.80;;;;;;;;;;4973762;28;20051;-66
2022/09/28 03:05:42;;;;;;;9.70;2.80;;;;;;;;;;4974592;28;20050;-66
2022/09/28 03:08:14;;;;;;;7.75;3.30;;;;;;;;;;4973718;28;20050;-67
2022/09/28 03:10:46;;;;;;;6.93;3.65;;;;;;;;;;4973380;28;20054;-66
2022/09/28 03:13:12;;;;;;;9.02;4.70;;;;;;;;;;4973336;28;20054;-66
2022/09/28 03:15:40;;;;;;;12.52;4.40;;;;;;;;;;4973508;28;20054;-67
2022/09/28 03:18:13;;;;;;;7.00;4.53;;;;;;;;;;4973365;28;20054;-67
2022/09/28 03:20:39;;;;;;;11.40;3.85;;;;;;;;;;4973124;28;20054;-66
2022/09/28 03:23:05;;;;;;;11.30;4.00;;;;;;;;;;4973223;28;20070;-67
2022/09/28 03:25:50;;;;;;;9.75;3.67;;;;;;;;;;4973464;28;20050;-67
2022/09/28 03:28:16;;;;;;;7.18;3.00;;;;;;;;;;4973359;28;20073;-67
2022/09/28 03:30:42;;;;;;;6.57;2.63;;;;;;;;;;4973349;28;20050;-66
2022/09/28 03:33:09;;;;;;;8.68;2.00;;;;;;;;;;4973361;28;20051;-67
2022/09/28 03:35:35;;;;;;;6.20;1.70;;;;;;;;;;4972964;28;20065;-66
2022/09/28 03:38:02;;;;;;;6.53;1.67;;;;;;;;;;4972998;28;20065;-67
2022/09/28 03:40:28;;;;;;;4.53;1.23;;;;;;;;;;4973383;28;20050;-66
2022/09/28 03:42:55;;;;;;;5.32;1.30;;;;;;;;;;4973206;28;20046;-67
2022/09/28 03:45:21;;;;;;;6.18;1.23;;;;;;;;;;4973091;28;20047;-67
2022/09/28 03:47:47;;;;;;;6.47;1.60;;;;;;;;;;4973142;28;20043;-66
2022/09/28 03:50:14;;;;;;;5.88;1.45;;;;;;;;;;4972867;28;20050;-67
2022/09/28 03:52:41;;;;;;;4.40;1.33;;;;;;;;;;4972895;28;20054;-66
2022/09/28 03:55:07;;;;;;;4.05;1.40;;;;;;;;;;4973011;28;20054;-66
2022/09/28 03:57:34;;;;;;;4.90;1.27;;;;;;;;;;4972959;28;20043;-66
2022/09/28 04:00:00;;;;;;;6.38;1.40;;;;;;;;;;4972665;28;20055;-67
2022/09/28 04:02:27;;;;;;;4.22;1.30;;;;;;;;;;4972960;28;20133;-67
2022/09/28 04:04:53;;;;;;;3.67;1.10;;;;;;;;;;4972980;28;20055;-66
2022/09/28 04:07:19;;;;;;;5.18;1.40;;;;;;;;;;4972712;28;20043;-67
2022/09/28 04:09:46;;;;;;;5.72;1.73;;;;;;;;;;4974984;28;20059;-67
2022/09/28 04:12:12;;;;;;;5.32;1.67;;;;;;;;;;4976778;28;20402;-67
2022/09/28 04:14:39;;;;;;;4.90;1.60;;;;;;;;;;4976736;28;20055;-67
2022/09/28 04:17:06;;;;;;;6.20;1.52;;;;;;;;;;4976490;28;20055;-66
2022/09/28 04:19:32;;;;;;;8.43;1.53;;;;;;;;;;4976544;28;20042;-66
2022/09/28 04:22:00;;;;;;;6.70;1.23;;;;;;;;;;4976278;28;20574;-66
2022/09/28 04:24:26;;;;;;;;;;;;;;;;;;4977132;28;20043;-66
2022/09/28 04:29:14;;;;;;;6.32;1.15;;;;;;;;;;4976664;28;19932;-66
2022/09/28 04:29:41;;;;;;;3.33;0.98;;;;;;;;;;4976633;28;20055;-67
2022/09/28 04:32:08;;;;;;;4.63;1.23;;;;;;;;;;4976213;28;20046;-66
2022/09/28 04:34:35;;;;;;;4.22;0.93;;;;;;;;;;4976553;28;20046;-66
2022/09/28 04:37:07;;;;;;;4.90;1.20;;;;;;;;;;4976569;28;20050;-67
2022/09/28 04:39:33;;;;;;;5.43;1.10;;;;;;;;;;4976069;28;20047;-67
2022/09/28 04:42:00;;;;;;;4.47;1.15;;;;;;;;;;4976044;28;20066;-67
2022/09/28 04:44:26;;;;;;;6.00;1.23;;;;;;;;;;4976309;28;20051;-66
2022/09/28 04:46:53;;;;;;;5.63;1.10;;;;;;;;;;4976025;28;20061;-66
2022/09/28 04:49:20;;;;;;;3.70;0.83;;;;;;;;;;4976236;28;20407;-66
2022/09/28 04:51:46;;;;;;;6.40;1.38;;;;;;;;;;4976008;28;20285;-66
2022/09/28 04:54:13;;;;;;;6.05;1.50;;;;;;;;;;4976195;28;20051;-66
2022/09/28 04:56:40;;;;;;;3.88;1.00;;;;;;;;;;4976003;28;20055;-66
2022/09/28 04:59:06;;;;;;;2.85;0.80;;;;;;;;;;4975800;28;20050;-66
2022/09/28 05:01:32;;;;;;;5.25;0.95;;;;;;;;;;4975807;28;20411;-66
2022/09/28 05:03:59;;;;;;;3.67;1.00;;;;;;;;;;4975618;28;20098;-66
2022/09/28 05:06:27;;;;;;;4.10;1.02;;;;;;;;;;4975813;28;20077;-66
2022/09/28 05:08:56;;;;;;;5.38;0.98;;;;;;;;;;4975383;28;20491;-66
2022/09/28 05:11:22;;;;;;;5.30;1.10;;;;;;;;;;4975897;28;20054;-66
2022/09/28 05:13:49;;;;;;;4.43;1.00;;;;;;;;;;4975491;28;20053;-66
2022/09/28 05:16:15;;;;;;;4.50;1.05;;;;;;;;;;4975550;28;20582;-66
2022/09/28 05:18:42;;;;;;;2.00;0.88;;;;;;;;;;4975726;28;20455;-66
2022/09/28 05:21:12;;;;;;;5.90;1.30;;;;;;;;;;4975467;28;20162;-67
2022/09/28 05:23:38;;;;;;;7.05;1.50;;;;;;;;;;4975272;28;20050;-66
2022/09/28 05:26:05;;;;;;;6.47;1.15;;;;;;;;;;4975572;28;20043;-66
2022/09/28 05:28:32;;;;;;;5.95;1.52;;;;;;;;;;4975232;28;20403;-66
2022/09/28 05:30:59;;;;;;;4.68;1.45;;;;;;;;;;4975464;28;20057;-66
2022/09/28 05:33:26;;;;;;;3.50;1.33;;;;;;;;;;4975567;28;20061;-66
2022/09/28 05:35:52;;;;;;;3.30;0.98;;;;;;;;;;4975056;28;20046;-66
2022/09/28 05:38:24;;;;;;;3.67;0.93;;;;;;;;;;4975210;28;20057;-67
2022/09/28 05:40:51;;;;;;;1.50;0.77;;;;;;;;;;4975023;28;20407;-67
2022/09/28 05:43:17;;;;;;;3.05;0.80;;;;;;;;;;4975265;28;20394;-66
2022/09/28 05:45:43;;;;;;;1.83;0.80;;;;;;;;;;4975107;28;20141;-66
2022/09/28 05:48:10;;;;;;;4.70;0.95;;;;;;;;;;4974396;28;20497;-66
2022/09/28 05:50:36;;;;;;;3.22;0.93;;;;;;;;;;4974792;28;20487;-66
2022/09/28 05:53:04;;;;;;;4.35;1.20;;;;;;;;;;4975052;28;20057;-67
2022/09/28 05:55:31;;;;;;;2.28;1.10;;;;;;;;;;4975016;28;20046;-67
2022/09/28 05:57:58;;;;;;;4.80;1.20;;;;;;;;;;4974761;28;20055;-66
2022/09/28 06:00:25;;;;;;;4.93;1.23;;;;;;;;;;4974901;28;20101;-66
2022/09/28 06:02:59;;;;;;;4.43;1.37;;;;;;;;;;4974915;28;20042;-66
2022/09/28 06:05:26;;;;;;;4.13;1.55;;;;;;;;;;4974604;28;20280;-66
2022/09/28 06:07:54;;;;;;;4.38;2.22;;;;;;;;;;4971434;28;20051;-67
2022/09/28 06:10:20;;;;;;;4.45;2.80;;;;;;;;;;4974063;28;20441;-67
2022/09/28 06:12:50;;;;;;;4.63;2.50;;;;;;;;;;4972674;28;20062;-67
2022/09/28 06:15:16;;;;;;;4.32;2.90;;;;;;;;;;4974147;28;20054;-66
2022/09/28 06:17:43;;;;;;;9.85;3.35;;;;;;;;;;4971513;28;20066;-66
2022/09/28 06:20:10;;;;;;;6.10;2.50;;;;;;;;;;4974327;28;20054;-67
2022/09/28 06:22:37;;;;;;;7.55;3.20;;;;;;;;;;4973596;28;20059;-67
2022/09/28 06:25:04;;;;;;;3.45;2.40;;;;;;;;;;4974114;28;20049;-66
2022/09/28 06:27:30;;;;;;;6.67;2.60;;;;;;;;;;4974042;28;20038;-66
2022/09/28 06:29:56;;;;;;;5.88;2.58;;;;;;;;;;4970891;28;20221;-66
2022/09/28 06:32:23;;;;;;;4.40;2.65;;;;;;;;;;4973053;28;20047;-65
2022/09/28 06:34:49;;;;;;;6.55;3.33;;;;;;;;;;4973915;28;20054;-65
2022/09/28 06:37:21;;;;;;;7.22;2.97;;;;;;;;;;4970734;28;20062;-66
2022/09/28 06:39:47;;;;;;;5.05;3.25;;;;;;;;;;4972595;28;20054;-65
2022/09/28 06:42:17;;;;;;;8.60;2.70;;;;;;;;;;4971805;28;20042;-65
2022/09/28 06:44:45;;;;;;;4.90;2.70;;;;;;;;;;4972189;28;20076;-66
2022/09/28 06:47:11;;;;;;;6.07;2.67;;;;;;;;;;4972938;28;20049;-65
2022/09/28 06:49:37;;;;;;;6.70;2.80;;;;;;;;;;4973256;28;20062;-65
2022/09/28 06:52:04;;;;;;;6.18;2.40;;;;;;;;;;4973739;28;20062;-66
2022/09/28 06:54:31;;;;;;;8.37;2.80;;;;;;;;;;4973925;28;20050;-65
2022/09/28 06:56:57;;;;;;;3.72;2.17;;;;;;;;;;4973764;28;20062;-65
2022/09/28 06:59:24;;;;;;;4.88;1.77;;;;;;;;;;4973625;28;20418;-65
2022/09/28 07:01:50;;;;;;;6.57;1.83;;;;;;;;;;4973616;28;20054;-66
2022/09/28 07:04:17;;;;;;;9.95;2.70;;;;;;;;;;4966552;28;20055;-66
2022/09/28 07:06:46;;;;;;;10.68;3.00;;;;;;;;;;4968055;28;20047;-65
2022/09/28 07:09:13;;;;;;;7.28;2.42;;;;;;;;;;4972634;28;20059;-65
2022/09/28 07:11:57;;;;;;;3.80;1.73;;;;;;;;;;4961391;28;20051;-65
2022/09/28 07:14:23;;;;;;;3.35;1.67;;;;;;;;;;4973443;28;20054;-65
2022/09/28 07:17:10;;;;;;;4.22;1.60;;;;;;;;;;4973477;28;20462;-65
2022/09/28 07:19:39;;;;;;;6.32;2.03;;;;;;;;;;4970013;28;20097;-64
2022/09/28 07:22:05;;;;;;;5.20;2.28;;;;;;;;;;4973203;28;20480;-64
2022/09/28 07:24:32;;;;;;;5.70;1.58;;;;;;;;;;4972842;28;20047;-65
2022/09/28 07:26:58;;;;;;;3.92;1.52;;;;;;;;;;4973135;28;20407;-66
2022/09/28 07:29:24;;;;;;;5.75;1.95;;;;;;;;;;4972994;28;20047;-66
2022/09/28 07:31:52;;;;;;;10.50;4.82;;;;;;;;;;4972956;28;20039;-65
2022/09/28 07:34:22;;;;;;;6.63;1.95;;;;;;;;;;4972342;28;20061;-66
2022/09/28 07:36:48;;;;;;;4.00;1.88;;;;;;;;;;4960676;28;20524;-66
2022/09/28 07:39:15;;;;;;;6.00;1.80;;;;;;;;;;4972804;28;20046;-66
2022/09/28 07:41:42;;;;;;;5.88;1.95;;;;;;;;;;4972437;28;20051;-67
2022/09/28 07:44:09;;;;;;;4.20;1.58;;;;;;;;;;4972483;28;20053;-65
2022/09/28 07:46:35;;;;;;;4.95;1.48;;;;;;;;;;4972395;28;20047;-65
2022/09/28 07:49:04;;;;;;;3.97;1.38;;;;;;;;;;4972723;28;20050;-66
2022/09/28 07:51:36;;;;;;;4.05;1.40;;;;;;;;;;4972520;28;20074;-66
2022/09/28 07:54:04;;;;;;;6.60;1.08;;;;;;;;;;4972523;28;20058;-66
2022/09/28 07:56:32;;;;;;;;;;;;;;;;;;4973120;28;20062;-66
2022/09/28 07:58:59;;;;;;;4.30;1.08;;;;;;;;;;4972803;28;19948;-66
2022/09/28 08:01:25;;;;;;;3.50;1.70;;;;;;;;;;4972973;28;20062;-66
2022/09/28 08:03:55;;;;;;;3.67;0.90;;;;;;;;;;4972812;28;20051;-66
2022/09/28 08:06:22;;;;;;;3.25;0.80;;;;;;;;;;4972825;28;20083;-67
2022/09/28 08:08:49;;;;;;;6.20;1.50;;;;;;;;;;4972216;28;20050;-66
2022/09/28 08:11:16;;;;;;;3.63;1.15;;;;;;;;;;4972959;28;20074;-67
2022/09/28 08:13:44;;;;;;;8.45;1.40;;;;;;;;;;4972948;28;20061;-67
2022/09/28 08:16:11;;;;;;;5.55;1.60;;;;;;;;;;4972700;28;20069;-66
2022/09/28 08:18:37;;;;;;;4.35;0.95;;;;;;;;;;4972911;28;20055;-67
2022/09/28 08:23:49;;;;;;;9.82;1.52;;;;;;;;;;4972509;28;20070;-66
2022/09/28 08:26:16;;;;;;;4.82;0.90;;;;;;;;;;4972890;28;20054;-66
2022/09/28 08:28:43;;;;;;;3.58;1.20;;;;;;;;;;4972676;28;20407;-66
2022/09/28 08:31:10;;;;;;;;;;;;;;;;;;4973279;28;20074;-66
2022/09/28 08:33:37;;;;;;;5.95;1.85;;;;;;;;;;4972533;28;20331;-67
2022/09/28 08:36:04;;;;;;;3.95;1.20;;;;;;;;;;4972442;28;20057;-66
2022/09/28 08:38:30;;;;;;;5.23;1.10;;;;;;;;;;4972503;28;20513;-66
2022/09/28 08:41:16;;;;;;;3.63;0.73;;;;;;;;;;4972750;28;20436;-67
2022/09/28 08:43:42;;;;;;;2.92;0.90;;;;;;;;;;4972621;28;20182;-66
2022/09/28 08:46:10;;;;;;;2.78;0.68;;;;;;;;;;4972379;28;20053;-66
2022/09/28 08:48:43;;;;;;;3.55;0.70;;;;;;;;;;4972615;28;20046;-67
2022/09/28 08:51:29;;;;;;;2.53;0.70;;;;;;;;;;4972623;28;20416;-67
2022/09/28 08:53:59;;;;;;;4.80;0.80;;;;;;;;;;4972498;28;20055;-67
2022/09/28 08:56:41;;;;;;;1.75;0.55;;;;;;;;;;4975954;28;20061;-67
2022/09/28 08:59:10;;;;;;;1.63;0.60;;;;;;;;;;4976112;28;20051;-66
2022/09/28 09:01:40;;;;;;;2.13;0.60;;;;;;;;;;4976074;28;20061;-67
2022/09/28 09:04:06;;;;;;;2.63;0.60;;;;;;;;;;4975730;28;20054;-67
2022/09/28 09:06:52;;;;;;;2.65;1.17;;;;;;;;;;4976058;28;20047;-67
2022/09/28 09:09:33;;;;;;;1.65;0.40;;;;;;;;;;4975499;28;20059;-67
2022/09/28 09:12:08;;;;;;;1.60;0.55;;;;;;;;;;4975612;28;20050;-67
2022/09/28 09:14:50;;;;;;;2.17;0.60;;;;;;;;;;4975730;28;20047;-67
2022/09/28 09:17:33;;;;;;;3.63;0.80;;;;;;;;;;4975466;28;20054;-67
2022/09/28 09:20:02;;;;;;;1.85;0.50;;;;;;;;;;4975505;28;20495;-66
2022/09/28 09:22:35;;;;;;;3.10;1.02;;;;;;;;;;4975587;28;20054;-66
2022/09/28 09:25:07;;;;;;;2.65;0.70;;;;;;;;;;4975388;28;20388;-66
2022/09/28 09:27:52;;;;;;;1.77;0.75;;;;;;;;;;4975272;28;20053;-66
2022/09/28 09:30:23;;;;;;;2.13;0.90;;;;;;;;;;4975534;28;20051;-66
2022/09/28 09:33:04;;;;;;;1.85;0.82;;;;;;;;;;4975521;28;20042;-66
2022/09/28 09:35:36;;;;;;;3.00;0.90;;;;;;;;;;4975171;28;20046;-67
2022/09/28 09:38:08;;;;;;;2.05;1.02;;;;;;;;;;4975261;28;20059;-67
2022/09/28 09:40:54;;;;;;;2.40;1.00;;;;;;;;;;4975088;28;20047;-67
2022/09/28 09:43:23;;;;;;;;;;;;;;;;;;4975366;28;20051;-67
2022/09/28 09:45:56;;;;;;;1.15;0.80;;;;;;;;;;4975249;28;19926;-67
2022/09/28 09:48:32;;;;;;;1.65;0.70;;;;;;;;;;4975323;28;20207;-67
2022/09/28 09:51:01;;;;;;;1.65;0.65;;;;;;;;;;4974842;28;20058;-66
2022/09/28 09:53:39;;;;;;;0.95;0.40;;;;;;;;;;4974732;28;20495;-66
2022/09/28 09:56:25;;;;;;;2.35;0.70;;;;;;;;;;4975049;28;20054;-66
2022/09/28 09:58:54;;;;;;;1.65;0.40;;;;;;;;;;4975070;28;20061;-67
2022/09/28 10:01:29;;;;;;;1.15;0.20;;;;;;;;;;4974836;28;20129;-67
2022/09/28 10:03:57;;;;;;;1.23;0.30;;;;;;;;;;4974927;28;20388;-66
2022/09/28 10:06:26;;;;;;;2.33;0.55;;;;;;;;;;4973784;28;20131;-67
2022/09/28 10:09:02;;;;;;;1.27;0.30;;;;;;;;;;4974364;28;20133;-66
2022/09/28 10:11:31;;;;;;;1.17;0.60;;;;;;;;;;4974876;28;20051;-67
2022/09/28 10:13:58;;;;;;;2.22;0.40;;;;;;;;;;4974419;28;20055;-67
2022/09/28 10:16:24;;;;;;;0.85;0.28;;;;;;;;;;4974718;28;20057;-67
2022/09/28 10:18:50;;;;;;;0.57;0.20;;;;;;;;;;4974351;28;20057;-67
2022/09/28 10:21:18;;;;;;;0.85;0.25;;;;;;;;;;4974361;28;20484;-67
2022/09/28 10:23:54;;;;;;;3.33;0.50;;;;;;;;;;4974271;28;20077;-67
2022/09/28 10:26:53;;;;;;;1.98;0.38;;;;;;;;;;4974214;28;20042;-67
2022/09/28 10:29:24;;;;;;;0.20;0.10;;;;;;;;;;4948279;28;20447;-67
2022/09/28 10:31:51;;;;;;;1.73;0.20;;;;;;;;;;4974292;28;20047;-67
2022/09/28 10:34:23;;;;;;;1.42;0.20;;;;;;;;;;4974261;28;20054;-67
2022/09/28 10:36:59;;;;;;;0.70;0.10;;;;;;;;;;4974233;28;20062;-66
2022/09/28 10:39:31;;;;;;;1.42;0.22;;;;;;;;;;4973973;28;20137;-67
2022/09/28 10:41:58;;;;;;;1.48;0.30;;;;;;;;;;4974031;28;20057;-67
2022/09/28 10:44:25;;;;;;;2.95;0.57;;;;;;;;;;4974042;28;20045;-67
2022/09/28 10:46:58;;;;;;;1.10;0.60;;;;;;;;;;4973849;28;20499;-67
2022/09/28 10:49:24;;;;;;;1.05;0.50;;;;;;;;;;4973990;28;20051;-67
2022/09/28 10:51:58;;;;;;;1.35;0.52;;;;;;;;;;4974070;28;20047;-67
2022/09/28 10:54:25;;;;;;;1.35;0.47;;;;;;;;;;4973926;28;20426;-67
2022/09/28 10:56:53;;;;;;;0.88;0.35;;;;;;;;;;4973694;28;20054;-67
2022/09/28 10:59:28;;;;;;;1.55;0.40;;;;;;;;;;4973591;28;20058;-67
2022/09/28 11:01:59;;;;;;;1.00;0.28;;;;;;;;;;4973962;28;20430;-67
2022/09/28 11:04:27;;;;;;;0.98;0.38;;;;;;;;;;4973583;28;20464;-66
2022/09/28 11:06:58;;;;;;;0.73;0.10;;;;;;;;;;4973647;28;20053;-67
2022/09/28 11:09:27;;;;;;;1.63;0.50;;;;;;;;;;4973404;28;20054;-66
2022/09/28 11:12:01;;;;;;;2.50;0.50;;;;;;;;;;4973703;28;20109;-67
2022/09/28 11:14:35;;;;;;;2.20;0.50;;;;;;;;;;4973398;28;20414;-67
2022/09/28 11:17:13;;;;;;;1.38;0.40;;;;;;;;;;4973436;28;20078;-67
2022/09/28 11:19:41;;;;;;;2.35;0.30;;;;;;;;;;4973580;28;20397;-67
2022/09/28 11:22:26;;;;;;;0.10;0.10;;;;;;;;;;4973340;28;20050;-67
2022/09/28 11:25:10;;;;;;;0.75;0.30;;;;;;;;;;4973369;28;20066;-67
2022/09/28 11:27:37;;;;;;;0.47;0.40;;;;;;;;;;4973115;28;20057;-67
2022/09/28 11:30:04;;;;;;;0.95;0.35;;;;;;;;;;4973149;28;20495;-66
2022/09/28 11:32:38;;;;;;;0.88;0.40;;;;;;;;;;4973354;28;20456;-67
2022/09/28 11:35:05;;;;;;;0.75;0.40;;;;;;;;;;4973426;28;20069;-67
2022/09/28 11:37:40;;;;;;;0.57;0.30;;;;;;;;;;4972981;28;20051;-67
2022/09/28 11:40:07;;;;;;;0.65;0.32;;;;;;;;;;4973274;28;20061;-67
2022/09/28 11:42:42;;;;;;;4.03;0.52;;;;;;;;;;4973027;28;20055;-67
2022/09/28 11:45:09;;;;;;;0.40;0.20;;;;;;;;;;4972941;28;20047;-67
2022/09/28 11:47:45;;;;;;;2.22;0.30;;;;;;;;;;4972792;28;20057;-67
2022/09/28 11:50:24;;;;;;;0.43;0.10;;;;;;;;;;4973185;28;20047;-67
2022/09/28 11:52:50;;;;;;;0.98;0.25;;;;;;;;;;4972910;28;20054;-66
2022/09/28 11:55:17;;;;;;;0.93;0.43;;;;;;;;;;4973076;28;20050;-67
2022/09/28 11:57:45;;;;;;;1.10;0.30;;;;;;;;;;4972837;28;20057;-66
2022/09/28 12:00:17;;;;;;;1.20;0.30;;;;;;;;;;4972574;28;20284;-67
2022/09/28 12:03:02;;;;;;;1.33;0.20;;;;;;;;;;4971784;28;20058;-67
2022/09/28 12:05:40;;;;;;;1.65;0.30;;;;;;;;;;4972733;28;20051;-67
2022/09/28 12:08:26;;;;;;;0.93;0.28;;;;;;;;;;4972880;28;20054;-66
2022/09/28 12:11:01;;;;;;;1.58;0.52;;;;;;;;;;4972997;28;20083;-67
2022/09/28 12:13:31;;;;;;;1.10;0.25;;;;;;;;;;4973071;28;20061;-67
2022/09/28 12:16:00;;;;;;;0.82;0.45;;;;;;;;;;4972857;28;20055;-67
2022/09/28 12:18:52;;;;;;;0.57;0.30;;;;;;;;;;4972602;28;20515;-67
2022/09/28 12:21:33;;;;;;;1.17;0.43;;;;;;;;;;4972964;28;20133;-67
2022/09/28 12:24:38;;;;;;;1.00;0.20;;;;;;;;;;4972767;28;20066;-67
2022/09/28 12:27:10;;;;;;;1.38;0.28;;;;;;;;;;4931818;29;20048;-67
2022/09/28 12:29:54;;;;;;;0.95;0.40;;;;;;;;;;4932420;29;20048;-67
2022/09/28 12:32:36;;;;;;;2.40;0.80;;;;;;;;;;4951321;28;20054;-67
2022/09/28 12:35:10;;;;;;;1.52;0.30;;;;;;;;;;4976373;28;20050;-67
2022/09/28 12:37:55;;;;;;;4.15;0.38;;;;;;;;;;4976233;28;20054;-67
2022/09/28 12:40:34;;;;;;;0.85;0.30;;;;;;;;;;4976530;28;20074;-67
2022/09/28 12:43:27;;;;;;;1.17;0.38;;;;;;;;;;4976231;28;20430;-67
2022/09/28 12:46:12;;;;;;;0.95;0.25;;;;;;;;;;4976016;28;20057;-67
2022/09/28 12:48:41;;;;;;;1.85;0.30;;;;;;;;;;4976271;28;20053;-67
2022/09/28 12:51:08;;;;;;;2.80;0.30;;;;;;;;;;4976246;28;20055;-67
2022/09/28 12:53:40;;;;;;;1.00;0.35;;;;;;;;;;4976235;28;20080;-67
2022/09/28 12:56:12;;;;;;;1.05;0.40;;;;;;;;;;4975889;28;20490;-67
2022/09/28 12:58:47;;;;;;;0.80;0.50;;;;;;;;;;4975811;28;20060;-67
2022/09/28 13:01:34;;;;;;;4.20;1.10;;;;;;;;;;4975778;28;20054;-67
2022/09/28 13:04:19;;;;;;;1.52;0.77;;;;;;;;;;4976405;28;20117;-67
2022/09/28 13:06:48;;;;;;;4.38;1.48;;;;;;;;;;4975708;28;20047;-67
2022/09/28 13:09:18;;;;;;;2.47;1.50;;;;;;;;;;4975647;28;20059;-67
2022/09/28 13:11:48;;;;;;;2.05;1.02;;;;;;;;;;4975923;28;20053;-67
2022/09/28 13:14:24;;;;;;;1.05;0.95;;;;;;;;;;4975612;28;20053;-67
2022/09/28 13:16:53;;;;;;;1.15;0.70;;;;;;;;;;4975429;28;20065;-67
2022/09/28 13:19:31;;;;;;;1.20;0.77;;;;;;;;;;4975558;28;20486;-67
2022/09/28 13:22:01;;;;;;;1.48;0.60;;;;;;;;;;4975691;28;20051;-67
2022/09/28 13:24:30;;;;;;;2.67;1.65;;;;;;;;;;4975677;28;20039;-67
2022/09/28 13:27:03;;;;;;;1.13;0.55;;;;;;;;;;4975419;28;20075;-68
2022/09/28 13:29:30;;;;;;;1.48;0.50;;;;;;;;;;4975681;28;20043;-68
2022/09/28 13:31:58;;;;;;;7.43;5.75;;;;;;;;;;4975258;28;20133;-68
2022/09/28 13:34:26;;;;;;;4.78;3.80;;;;;;;;;;4975345;28;20053;-67
2022/09/28 13:37:11;;;;;;;3.28;2.78;;;;;;;;;;4975340;28;20069;-67
2022/09/28 13:39:44;;;;;;;4.53;2.78;;;;;;;;;;4976167;28;20566;-67
2022/09/28 13:42:11;;;;;;;2.50;1.45;;;;;;;;;;4975308;28;20058;-68
2022/09/28 13:44:37;;;;;;;1.63;1.25;;;;;;;;;;4975134;28;20070;-67
2022/09/28 13:47:15;;;;;;;3.80;3.40;;;;;;;;;;4975036;28;20054;-67
2022/09/28 13:49:53;;;;;;;2.53;1.92;;;;;;;;;;4975024;28;20049;-67
2022/09/28 13:52:25;;;;;;;2.60;2.30;;;;;;;;;;4975009;28;20061;-67
2022/09/28 13:54:51;;;;;;;2.15;1.65;;;;;;;;;;4974765;28;20510;-67
2022/09/28 13:57:24;;;;;;;2.08;0.95;;;;;;;;;;4974807;28;20057;-67
2022/09/28 13:59:56;;;;;;;2.30;1.50;;;;;;;;;;4974683;28;20057;-67
2022/09/28 14:02:40;;;;;;;0.88;0.55;;;;;;;;;;4975048;28;20057;-67
2022/09/28 14:05:22;;;;;;;1.27;1.02;;;;;;;;;;4974809;28;20054;-67
2022/09/28 14:08:07;;;;;;;1.38;0.65;;;;;;;;;;4974620;28;20050;-67
2022/09/28 14:10:48;;;;;;;0.50;0.47;;;;;;;;;;4974299;28;20055;-67
2022/09/28 14:13:34;;;;;;;1.33;0.70;;;;;;;;;;4974606;28;20050;-67
2022/09/28 14:16:00;;;;;;;;;;;;;;;;;;4974872;28;20058;-67
2022/09/28 14:18:32;;;;;;;0.77;0.20;;;;;;;;;;4974509;28;20596;-67
2022/09/28 14:21:01;;;;;;;1.48;0.32;;;;;;;;;;4974433;28;20050;-67
2022/09/28 14:23:56;;;;;;;2.70;0.75;;;;;;;;;;4974650;28;20064;-67
2022/09/28 14:26:31;;;;;;;3.80;0.85;;;;;;;;;;4936344;28;20067;-66
2022/09/28 14:28:57;;;;;;;2.97;0.65;;;;;;;;;;4970701;28;20058;-67
2022/09/28 14:31:25;;;;;;;2.13;0.70;;;;;;;;;;4974351;28;20177;-66
2022/09/28 14:34:00;;;;;;;2.40;0.60;;;;;;;;;;4974552;28;20137;-67
2022/09/28 14:42:14;;;;;;;1.60;0.20;;;;;;;;;;4974332;28;20055;-66
2022/09/28 14:45:06;;;;;;;0.60;0.20;;;;;;;;;;4973730;28;20061;-66
2022/09/28 14:47:39;;;;;;;1.50;0.20;;;;;;;;;;4950635;28;20050;-67
2022/09/28 14:50:21;;;;;;;1.00;0.20;;;;;;;;;;4972730;28;20134;-66
2022/09/28 14:52:52;;;;;;;0.20;0.13;;;;;;;;;;4973571;28;20047;-66
2022/09/28 14:55:38;;;;;;;0.57;0.40;;;;;;;;;;4973699;28;20062;-67
2022/09/28 14:58:08;;;;;;;0.90;0.90;;;;;;;;;;4973572;28;20414;-67
2022/09/28 15:00:36;;;;;;;0.55;0.50;;;;;;;;;;4973690;28;20046;-66
2022/09/28 15:03:03;;;;;;;0.73;0.30;;;;;;;;;;4973621;28;20055;-68
2022/09/28 15:05:42;;;;;;;9.65;8.65;;;;;;;;;;4973459;28;20074;-67
2022/09/28 15:08:10;;;;;;;10.30;9.40;;;;;;;;;;4973804;28;20453;-67
2022/09/28 15:10:37;;;;;;;4.43;3.83;;;;;;;;;;4973233;28;20145;-66
2022/09/28 15:13:24;;;;;;;0.70;0.50;;;;;;;;;;4973561;28;20051;-67
2022/09/28 15:15:58;;;;;;;0.93;0.32;;;;;;;;;;4973470;28;20430;-67